Time;durP1;ratioP1;P1;durP2;ratioP2;P2;SDS_P1;SDS_P2;PMS_P1;PMS_P2;Temp;Humidity;BMP_temperature;BMP_pressure;BME280_temperature;BME280_humidity;BME280_pressure;Samples;Min_cycle;Max_cycle;Signal;HPM_P1;HPM_P2
2024/01/22 05:32:04;;;;;;;;;2.00;1.50;;;;;19.35;50.17;100924.31;5034563;28;45559;-76
2024/01/22 05:34:30;;;;;;;;;0.00;0.00;;;;;19.67;49.22;100913.59;5036571;28;46114;-77
2024/01/22 05:36:55;;;;;;;;;1.00;1.00;;;;;19.58;49.72;100904.31;5032658;28;45356;-77
2024/01/22 05:39:21;;;;;;;;;1.00;1.00;;;;;19.68;49.16;100908.03;5036584;28;45637;-77
2024/01/22 05:41:46;;;;;;;;;1.00;1.00;;;;;18.94;51.06;100936.59;5028814;28;45337;-76
2024/01/22 05:44:11;;;;;;;;;1.25;1.25;;;;;19.23;50.84;100896.25;5036759;28;45729;-75
2024/01/22 05:46:37;;;;;;;;;1.00;1.00;;;;;18.74;52.90;100897.38;5036148;28;45309;-76
2024/01/22 05:49:02;;;;;;;;;2.75;1.00;;;;;19.37;51.31;100922.34;5036653;28;45229;-75
2024/01/22 05:51:28;;;;;;;;;0.50;0.50;;;;;19.28;51.22;100902.19;5037073;28;45725;-78
2024/01/22 05:53:53;;;;;;;;;1.00;1.00;;;;;18.72;52.40;100920.22;5036526;28;45958;-75
2024/01/22 05:56:25;;;;;;;;;2.00;1.00;;;;;19.51;51.03;100892.22;5036544;28;50230;-76
2024/01/22 05:58:51;;;;;;;;;2.00;1.00;;;;;19.40;50.48;100892.19;5036816;28;45749;-77
2024/01/22 06:01:26;;;;;;;;;0.00;0.00;;;;;19.42;50.66;100898.38;5036510;28;45443;-76
2024/01/22 06:03:52;;;;;;;;;1.00;1.00;;;;;19.25;51.21;100911.44;5044034;28;45237;-76
2024/01/22 06:06:18;;;;;;;;;1.00;1.00;;;;;19.42;50.97;100906.53;5037122;28;45470;-78
2024/01/22 06:08:44;;;;;;;;;1.00;1.00;;;;;19.09;51.55;100912.78;5036458;28;45229;-76
2024/01/22 06:11:11;;;;;;;;;1.25;1.00;;;;;19.28;51.18;100911.22;5035430;28;45293;-76
2024/01/22 06:13:39;;;;;;;;;2.75;2.00;;;;;18.58;52.48;100888.69;5017810;28;46051;-77
2024/01/22 06:16:14;;;;;;;;;1.00;1.00;;;;;19.04;51.98;100894.13;5036392;28;45494;-78
2024/01/22 06:18:41;;;;;;;;;0.00;0.00;;;;;17.90;54.10;100924.56;5036149;28;45517;-76
2024/01/22 06:21:07;;;;;;;;;1.00;1.00;;;;;18.76;52.56;100910.84;5036291;28;45440;-76
2024/01/22 06:23:33;;;;;;;;;2.00;2.00;;;;;18.86;52.32;100909.16;5035868;28;45287;-75
2024/01/22 06:25:59;;;;;;;;;1.00;1.00;;;;;18.77;52.96;100918.88;5036071;28;45712;-75
2024/01/22 06:28:25;;;;;;;;;1.25;1.25;;;;;18.97;51.71;100914.59;5035722;28;45456;-75
2024/01/22 06:30:51;;;;;;;;;1.00;1.00;;;;;18.92;51.79;100937.69;5035688;28;45593;-75
2024/01/22 06:33:18;;;;;;;;;1.00;1.00;;;;;19.05;51.54;100903.16;5035655;28;46131;-80
2024/01/22 06:35:44;;;;;;;;;2.00;2.00;;;;;18.66;52.97;100912.53;5019127;28;45542;-77
2024/01/22 06:38:09;;;;;;;;;0.25;0.25;;;;;18.44;53.04;100918.72;5017942;28;45531;-78
2024/01/22 06:40:34;;;;;;;;;1.75;1.75;;;;;19.11;51.60;100889.06;5028378;28;46255;-77
2024/01/22 06:43:00;;;;;;;;;1.50;1.50;;;;;19.23;51.46;100899.81;5034144;28;48005;-76
2024/01/22 06:45:25;;;;;;;;;1.00;1.00;;;;;19.06;51.52;100874.97;5017226;28;45333;-77
2024/01/22 06:47:52;;;;;;;;;1.00;1.00;;;;;18.74;52.45;100882.94;5038867;28;46829;-75
2024/01/22 06:50:17;;;;;;;;;1.50;0.75;;;;;19.09;52.00;100908.22;5035753;28;45493;-79
2024/01/22 06:52:43;;;;;;;;;1.00;1.00;;;;;18.67;53.02;100878.97;5035556;28;46606;-76
2024/01/22 06:55:09;;;;;;;;;1.50;1.50;;;;;18.77;53.63;100908.03;5035692;28;45174;-77
2024/01/22 06:57:34;;;;;;;;;1.00;1.00;;;;;19.00;53.06;100898.06;5035414;28;45539;-78
2024/01/22 07:00:06;;;;;;;;;2.00;2.00;;;;;18.94;52.05;100838.78;5035746;28;45435;-79
2024/01/22 07:02:32;;;;;;;;;1.25;1.25;;;;;18.82;53.02;100929.38;5051814;28;46115;-75
2024/01/22 07:04:57;;;;;;;;;2.00;2.00;;;;;18.74;54.04;100907.38;5042519;28;45469;-74
2024/01/22 07:07:23;;;;;;;;;2.00;1.00;;;;;19.02;52.84;100879.81;5035247;28;45606;-79
2024/01/22 07:09:49;;;;;;;;;1.00;1.00;;;;;18.98;53.44;100889.16;5035197;28;45282;-74
2024/01/22 07:12:15;;;;;;;;;1.50;0.25;;;;;18.40;54.50;100888.22;5034978;28;46269;-73
2024/01/22 07:14:41;;;;;;;;;1.75;1.00;;;;;19.02;53.71;100897.97;5034724;28;45439;-74
2024/01/22 07:17:06;;;;;;;;;1.00;1.00;;;;;18.92;52.97;100886.94;5034849;28;45363;-71
2024/01/22 07:19:32;;;;;;;;;2.00;2.00;;;;;18.92;52.96;100926.81;5034821;28;45351;-73
2024/01/22 07:21:57;;;;;;;;;1.50;1.00;;;;;18.53;54.09;100926.16;5034281;28;45388;-74
2024/01/22 07:24:23;;;;;;;;;3.00;2.00;;;;;18.76;53.80;100883.69;5035025;28;45395;-73
2024/01/22 07:26:48;;;;;;;;;2.00;2.00;;;;;18.88;53.62;100899.88;5016117;28;45499;-74
2024/01/22 07:29:13;;;;;;;;;1.00;1.00;;;;;19.23;52.63;100899.81;5034667;28;45537;-78
2024/01/22 07:31:39;;;;;;;;;0.75;0.75;;;;;19.01;53.07;100885.34;5034308;28;45500;-77
2024/01/22 07:34:05;;;;;;;;;1.00;1.00;;;;;19.20;52.74;100916.41;5034954;28;45319;-73
2024/01/22 07:36:30;;;;;;;;;0.50;0.50;;;;;19.24;52.55;100893.41;5010207;28;45370;-73
2024/01/22 07:38:57;;;;;;;;;1.00;1.00;;;;;19.41;52.18;100912.94;5033730;28;53254;-73
2024/01/22 07:41:23;;;;;;;;;0.00;0.00;;;;;19.21;52.39;100890.94;5026339;28;46273;-74
2024/01/22 07:43:48;;;;;;;;;2.00;2.00;;;;;18.82;53.86;100918.50;5033800;28;45250;-74
2024/01/22 07:46:14;;;;;;;;;0.75;0.75;;;;;18.92;53.99;100922.25;5034780;28;45292;-74
2024/01/22 07:48:40;;;;;;;;;1.75;0.25;;;;;18.96;54.24;100936.47;5034314;28;45600;-72
2024/01/22 07:51:05;;;;;;;;;1.00;1.00;;;;;19.51;52.72;100954.75;5040981;28;46292;-72
2024/01/22 07:53:31;;;;;;;;;0.50;0.00;;;;;18.73;53.87;100905.66;5045982;28;45301;-77
2024/01/22 07:55:56;;;;;;;;;2.25;1.00;;;;;18.49;54.96;100987.97;5041916;28;45554;-78
2024/01/22 07:58:21;;;;;;;;;1.00;1.00;;;;;19.22;53.55;100930.72;5038205;28;45536;-75
2024/01/22 08:00:47;;;;;;;;;1.00;1.00;;;;;18.96;53.65;100944.63;5037470;28;45923;-84
2024/01/22 08:03:12;;;;;;;;;1.00;1.00;;;;;19.19;53.23;100966.31;5043541;28;45467;-79
2024/01/22 08:05:38;;;;;;;;;0.75;0.00;;;;;18.94;53.54;100936.59;5036252;28;45394;-80
2024/01/22 08:08:03;;;;;;;;;1.00;1.00;;;;;19.00;54.14;100952.41;5034720;28;45269;-78
2024/01/22 08:10:29;;;;;;;;;1.00;1.00;;;;;19.13;53.61;100960.50;5041585;28;45495;-76
2024/01/22 08:12:56;;;;;;;;;2.00;2.00;;;;;19.66;52.36;100980.72;5044074;28;45497;-77
2024/01/22 08:15:22;;;;;;;;;0.50;0.50;;;;;19.55;52.70;100968.00;5020673;28;45348;-77
2024/01/22 08:17:47;;;;;;;;;1.00;1.00;;;;;19.50;52.67;100981.09;5033927;28;45537;-78
2024/01/22 08:20:12;;;;;;;;;1.00;1.00;;;;;19.49;52.64;100964.88;5034182;28;46287;-78
2024/01/22 08:22:39;;;;;;;;;1.00;1.00;;;;;19.45;53.20;101002.31;5034641;28;45228;-79
2024/01/22 08:25:05;;;;;;;;;0.75;0.25;;;;;19.59;52.64;100993.97;5016123;28;45420;-77
2024/01/22 08:27:30;;;;;;;;;1.00;1.00;;;;;19.73;52.09;100992.00;5034092;28;45589;-77
2024/01/22 08:29:55;;;;;;;;;1.00;1.00;;;;;19.71;51.79;101000.28;5033842;28;45365;-77
2024/01/22 08:32:21;;;;;;;;;1.00;1.00;;;;;19.26;53.15;100991.16;5033977;28;45505;-78
2024/01/22 08:34:48;;;;;;;;;1.00;1.00;;;;;19.81;52.35;101020.34;5035451;28;45339;-78
2024/01/22 08:37:14;;;;;;;;;1.00;1.00;;;;;19.76;51.93;101025.25;5031375;28;45633;-78
2024/01/22 08:39:39;;;;;;;;;1.00;1.00;;;;;19.79;51.97;101048.66;5037034;28;47495;-78
2024/01/22 08:42:05;;;;;;;;;1.00;1.00;;;;;19.87;51.90;101044.31;5028472;28;45350;-78
2024/01/22 08:44:30;;;;;;;;;1.00;1.00;;;;;19.81;51.95;101061.16;5037478;28;45366;-78
2024/01/22 08:46:55;;;;;;;;;0.00;0.00;;;;;19.78;52.49;101039.63;5037606;28;45332;-80
2024/01/22 08:49:21;;;;;;;;;0.25;0.25;;;;;19.87;51.95;101046.19;5019404;28;45940;-78
2024/01/22 08:51:46;;;;;;;;;0.00;0.00;;;;;19.83;52.07;101042.81;5037670;28;45314;-79
2024/01/22 08:54:11;;;;;;;;;1.75;0.00;;;;;19.99;51.44;101034.28;5037789;28;45166;-78
2024/01/22 08:56:37;;;;;;;;;0.00;0.00;;;;;20.16;51.53;101061.00;5019147;28;49551;-76
2024/01/22 08:59:02;;;;;;;;;0.00;0.00;;;;;20.39;51.27;101068.25;5019256;28;47165;-75
2024/01/22 09:01:28;;;;;;;;;0.00;0.00;;;;;20.23;51.37;101047.78;5019209;28;45234;-75
2024/01/22 09:03:54;;;;;;;;;0.00;0.00;;;;;19.58;53.01;101065.66;5047130;28;45600;-77
2024/01/22 09:06:19;;;;;;;;;0.00;0.00;;;;;20.18;52.16;101060.91;5037272;28;46458;-76
2024/01/22 09:08:44;;;;;;;;;1.00;1.00;;;;;19.95;52.70;101050.03;5037161;28;45438;-77
2024/01/22 09:11:10;;;;;;;;;1.25;0.00;;;;;20.46;51.50;101063.16;5036452;28;52426;-77
2024/01/22 09:13:37;;;;;;;;;2.00;1.00;;;;;20.39;51.21;101029.25;5036580;28;45281;-75
2024/01/22 09:16:03;;;;;;;;;1.50;0.50;;;;;20.47;51.03;101072.19;5037070;28;45498;-77
2024/01/22 09:18:28;;;;;;;;;1.00;1.00;;;;;20.38;50.81;101061.06;5036536;28;45607;-77
2024/01/22 09:20:55;;;;;;;;;0.00;0.00;;;;;20.29;51.56;101104.47;5036261;28;45411;-75
2024/01/22 09:23:21;;;;;;;;;0.25;0.25;;;;;20.43;51.13;101101.50;5037120;28;45306;-77
2024/01/22 09:25:47;;;;;;;;;1.00;1.00;;;;;20.64;50.67;101110.66;5036199;28;45201;-77
2024/01/22 09:28:14;;;;;;;;;2.00;0.75;;;;;20.47;50.70;101092.13;5034125;28;45618;-76
2024/01/22 09:30:39;;;;;;;;;1.50;0.50;;;;;20.83;50.32;101101.84;5034328;28;45402;-76
2024/01/22 09:33:05;;;;;;;;;2.00;0.75;;;;;20.51;50.76;101093.59;5034252;28;45492;-76
2024/01/22 09:35:30;;;;;;;;;1.00;1.00;;;;;20.74;50.02;101089.84;5031240;28;45602;-75
2024/01/22 09:37:56;;;;;;;;;1.00;0.00;;;;;20.55;50.39;101084.19;5030812;28;46166;-76
2024/01/22 09:40:25;;;;;;;;;1.25;1.25;;;;;20.96;49.42;101105.28;5029091;28;45758;-77
2024/01/22 09:42:53;;;;;;;;;1.00;1.00;;;;;20.85;49.18;101094.38;5033509;28;45304;-77
2024/01/22 09:45:18;;;;;;;;;1.00;1.00;;;;;20.97;49.10;101123.38;5036365;28;45377;-76
2024/01/22 09:47:45;;;;;;;;;1.50;1.50;;;;;20.95;49.03;101121.75;5035974;28;46092;-76
2024/01/22 09:50:11;;;;;;;;;1.00;1.00;;;;;21.15;48.15;101121.81;5036481;28;45297;-75
2024/01/22 09:52:43;;;;;;;;;3.00;2.00;;;;;21.07;48.36;101115.28;5036320;28;45217;-76
2024/01/22 09:55:09;;;;;;;;;6.50;0.50;;;;;20.98;48.79;101146.03;5036551;28;45406;-77
2024/01/22 09:57:36;;;;;;;;;2.50;1.00;;;;;21.00;48.84;101125.84;5035902;28;45205;-76
2024/01/22 10:00:03;;;;;;;;;3.00;1.00;;;;;21.11;48.34;101130.38;5028467;28;45450;-76
2024/01/22 10:02:29;;;;;;;;;3.00;3.00;;;;;21.24;47.73;101128.41;5038140;28;45472;-76
2024/01/22 10:04:55;;;;;;;;;2.00;2.00;;;;;21.49;46.96;101135.38;5043755;28;45398;-76
2024/01/22 10:07:20;;;;;;;;;3.50;2.25;;;;;21.47;46.85;101134.63;5035955;28;46099;-75
2024/01/22 10:09:46;;;;;;;;;1.00;1.00;;;;;21.08;46.98;101128.78;5036170;28;45339;-76
2024/01/22 10:12:12;;;;;;;;;1.00;1.00;;;;;20.83;47.46;101137.28;5031210;28;45422;-78
2024/01/22 10:14:37;;;;;;;;;1.75;1.75;;;;;21.26;46.76;101144.63;5035899;28;45395;-76
2024/01/22 10:17:32;;;;;;;;;3.25;2.00;;;;;21.23;46.34;101139.44;5035473;28;46047;-76
2024/01/22 10:20:06;;;;;;;;;3.75;2.00;;;;;21.17;46.08;101138.09;5018293;28;45346;-76
2024/01/22 10:22:32;;;;;;;;;6.00;3.00;;;;;21.58;45.09;101122.78;5035859;28;45509;-77
2024/01/22 10:25:02;;;;;;;;;3.00;3.00;;;;;21.01;44.68;101135.72;5035781;28;45277;-77
2024/01/22 10:27:27;;;;;;;;;3.75;3.75;;;;;21.01;44.43;101130.28;5035469;28;46495;-76
2024/01/22 10:30:08;;;;;;;;;4.50;2.50;;;;;20.89;43.70;101166.75;5035624;28;45564;-77
2024/01/22 10:32:34;;;;;;;;;5.75;3.00;;;;;21.05;43.48;101155.44;5035488;28;45435;-74
2024/01/22 10:34:59;;;;;;;;;7.75;3.00;;;;;20.78;43.70;101153.13;5035149;28;45768;-76
2024/01/22 10:37:24;;;;;;;;;4.50;3.00;;;;;20.88;42.83;101134.16;5029580;28;50323;-75
2024/01/22 10:40:00;;;;;;;;;3.00;1.75;;;;;21.29;42.55;101149.81;5034594;28;45504;-76
2024/01/22 10:42:26;;;;;;;;;3.00;3.00;;;;;21.34;42.54;101134.81;5029443;28;45348;-76
2024/01/22 10:44:52;;;;;;;;;3.00;3.00;;;;;21.24;42.12;101163.84;5035625;28;45636;-75
2024/01/22 10:47:19;;;;;;;;;3.50;3.50;;;;;21.34;42.45;101181.19;5035477;28;46320;-76
2024/01/22 10:49:46;;;;;;;;;3.00;3.00;;;;;21.25;42.62;101165.59;5017303;28;45492;-75
2024/01/22 10:52:13;;;;;;;;;4.50;3.00;;;;;21.57;41.94;101142.88;5035590;28;45391;-75
2024/01/22 10:54:39;;;;;;;;;6.25;2.75;;;;;21.63;41.96;101170.50;5035313;28;45512;-75
2024/01/22 10:57:24;;;;;;;;;4.00;3.00;;;;;21.80;41.69;101178.13;5016280;28;47609;-75
2024/01/22 10:59:52;;;;;;;;;7.25;3.00;;;;;21.82;41.78;101170.66;5025931;28;45308;-76
2024/01/22 11:02:22;;;;;;;;;1.50;1.00;;;;;21.58;42.29;101152.81;5035745;28;45420;-75
2024/01/22 11:04:52;;;;;;;;;7.75;4.75;;;;;21.63;42.06;101154.13;5043439;28;45326;-76
2024/01/22 11:07:25;;;;;;;;;3.75;3.50;;;;;21.48;42.29;101167.22;5035243;28;45339;-77
2024/01/22 11:09:54;;;;;;;;;6.00;4.50;;;;;21.43;42.24;101149.53;5035367;28;45383;-77
2024/01/22 11:12:21;;;;;;;;;8.00;4.75;;;;;21.40;42.07;101147.06;5035059;28;45368;-75
2024/01/22 11:14:48;;;;;;;;;8.50;4.50;;;;;21.61;42.17;101166.16;5035444;28;45356;-74
2024/01/22 11:17:15;;;;;;;;;3.75;3.75;;;;;21.68;42.23;101167.41;5035298;28;45398;-76
2024/01/22 11:19:40;;;;;;;;;6.00;3.50;;;;;21.78;41.19;101149.22;5035168;28;45244;-76
2024/01/22 11:22:15;;;;;;;;;8.00;4.00;;;;;21.90;41.32;101150.91;5035003;28;45415;-77
2024/01/22 11:24:40;;;;;;;;;5.25;3.50;;;;;21.72;41.31;101160.66;5036652;28;45257;-75
2024/01/22 11:27:07;;;;;;;;;3.50;2.00;;;;;21.63;40.99;101137.75;5036044;28;45360;-85
2024/01/22 11:29:34;;;;;;;;;6.00;2.00;;;;;22.01;40.55;101172.72;5035856;28;45612;-77
2024/01/22 11:32:25;;;;;;;;;7.00;4.00;;;;;21.93;40.33;101177.94;5035452;28;45284;-82
2024/01/22 11:34:51;;;;;;;;;6.33;4.67;;;;;21.65;40.47;101184.91;5036143;28;45331;-82
2024/01/22 11:37:34;;;;;;;;;5.50;4.50;;;;;21.64;40.86;101172.25;5029795;28;45635;-81
2024/01/22 11:39:59;;;;;;;;;5.00;2.25;;;;;21.76;40.66;101179.41;5033075;28;45405;-81
2024/01/22 11:42:28;;;;;;;;;5.25;3.25;;;;;21.62;41.28;101184.28;5029580;28;45256;-78
2024/01/22 11:44:53;;;;;;;;;7.50;5.75;;;;;21.37;43.61;101190.94;5036140;28;45477;-82
2024/01/22 11:47:21;;;;;;;;;5.00;3.00;;;;;21.34;44.28;101172.13;5035840;28;46619;-80
2024/01/22 11:49:46;;;;;;;;;7.00;4.00;;;;;21.05;45.17;101171.78;5035850;28;45397;-81
2024/01/22 11:52:17;;;;;;;;;9.00;6.25;;;;;21.00;45.89;101182.22;5017316;28;45459;-79
2024/01/22 11:55:01;;;;;;;;;9.25;5.75;;;;;20.74;46.75;101193.41;5036145;28;45557;-81
2024/01/22 11:57:28;;;;;;;;;3.25;2.00;;;;;20.61;47.27;101202.66;5034785;28;46061;-77
2024/01/22 11:59:58;;;;;;;;;9.50;3.25;;;;;20.56;47.12;101204.91;5017694;28;45420;-79
2024/01/22 12:02:24;;;;;;;;;4.50;2.25;;;;;20.12;47.66;101184.78;5036655;28;45260;-82
2024/01/22 12:05:06;;;;;;;;;9.00;3.00;;;;;20.29;48.05;101195.19;5043269;28;45348;-80
2024/01/22 12:07:32;;;;;;;;;11.75;5.50;;;;;20.55;47.17;101216.78;5030750;28;45419;-81
2024/01/22 12:10:01;;;;;;;;;7.50;5.00;;;;;20.36;47.47;101191.03;5034152;28;45404;-82
2024/01/22 12:12:27;;;;;;;;;7.00;5.00;;;;;20.43;47.89;101218.63;5034337;28;45296;-78
2024/01/22 12:14:59;;;;;;;;;4.75;4.50;;;;;20.61;47.50;101209.00;5016509;28;46186;-80
2024/01/22 12:17:25;;;;;;;;;3.50;3.50;;;;;20.53;47.60;101206.00;5034716;28;46310;-80
2024/01/22 12:19:54;;;;;;;;;13.25;3.75;;;;;20.28;47.02;101198.91;5034377;28;45229;-80
2024/01/22 12:22:24;;;;;;;;;3.00;2.00;;;;;20.24;45.83;101207.44;5034517;28;45380;-80
2024/01/22 12:25:03;;;;;;;;;4.50;3.50;;;;;20.28;45.79;101198.03;5034427;28;45185;-79
2024/01/22 12:27:29;;;;;;;;;4.25;4.25;;;;;20.43;45.43;101213.19;5034543;28;46177;-83
2024/01/22 12:30:04;;;;;;;;;5.75;3.00;;;;;20.76;45.05;101199.56;5034766;28;45329;-82
2024/01/22 12:32:30;;;;;;;;;5.75;2.75;;;;;20.68;44.22;101191.16;5034193;28;45331;-81
2024/01/22 12:34:57;;;;;;;;;6.50;3.00;;;;;20.83;43.67;101186.34;5033991;28;45455;-80
2024/01/22 12:37:26;;;;;;;;;5.25;3.00;;;;;20.37;43.29;101148.31;5028190;28;45648;-80
2024/01/22 12:40:06;;;;;;;;;6.25;4.00;;;;;20.69;43.37;101181.13;5032470;28;45534;-80
2024/01/22 12:42:32;;;;;;;;;4.75;3.00;;;;;20.55;42.53;101160.47;5028954;28;45293;-81
2024/01/22 12:44:58;;;;;;;;;8.75;3.00;;;;;20.38;43.45;101207.25;5034094;28;45378;-79
2024/01/22 12:47:25;;;;;;;;;5.00;4.00;;;;;20.87;42.57;101176.03;5033663;28;45573;-80
2024/01/22 12:49:52;;;;;;;;;2.25;1.25;;;;;21.03;42.04;101192.84;5034313;28;45394;-79
2024/01/22 12:52:17;;;;;;;;;2.50;1.75;;;;;21.02;41.84;101207.47;5016439;28;45301;-79
2024/01/22 12:54:43;;;;;;;;;3.75;2.25;;;;;20.81;41.85;101221.00;5035602;28;45379;-80
2024/01/22 12:57:08;;;;;;;;;2.25;2.00;;;;;20.94;41.62;101231.78;5034285;28;46040;-80
2024/01/22 12:59:34;;;;;;;;;3.75;1.25;;;;;20.73;41.94;101202.56;5034892;28;46215;-80
2024/01/22 13:01:59;;;;;;;;;2.75;2.00;;;;;20.89;41.31;101223.13;5016609;28;45488;-83
2024/01/22 13:04:25;;;;;;;;;0.75;0.75;;;;;20.83;41.67;101220.91;5044440;28;45567;-78
2024/01/22 13:06:51;;;;;;;;;3.75;3.00;;;;;21.06;41.10;101201.66;5033613;28;45687;-80
2024/01/22 13:09:17;;;;;;;;;1.00;1.00;;;;;21.04;41.38;101203.63;5016215;28;45359;-81
2024/01/22 13:11:44;;;;;;;;;7.75;3.75;;;;;20.74;41.09;101187.09;5015767;28;45327;-81
2024/01/22 13:14:09;;;;;;;;;3.00;1.25;;;;;21.01;41.35;101186.69;5020302;28;45610;-81
2024/01/22 13:16:35;;;;;;;;;2.00;2.00;;;;;20.83;40.88;101167.25;5034119;28;46603;-81
2024/01/22 13:19:00;;;;;;;;;4.50;2.75;;;;;21.09;41.18;101187.78;5034002;28;45302;-80
2024/01/22 13:21:26;;;;;;;;;1.00;1.00;;;;;21.21;40.48;101205.00;5036095;28;50223;-79
2024/01/22 13:23:52;;;;;;;;;3.25;2.00;;;;;21.69;40.39;101205.44;5037345;28;45504;-81
2024/01/22 13:26:18;;;;;;;;;2.00;1.75;;;;;21.69;40.04;101194.53;5036605;28;45943;-81
2024/01/22 13:28:44;;;;;;;;;1.00;1.00;;;;;21.45;40.05;101191.16;5036963;28;45335;-82
2024/01/22 13:31:10;;;;;;;;;3.00;1.00;;;;;21.50;40.16;101219.81;5037034;28;45467;-83
2024/01/22 13:33:35;;;;;;;;;4.25;2.50;;;;;21.54;39.60;101201.31;5036738;28;45878;-79
2024/01/22 13:36:03;;;;;;;;;2.50;2.00;;;;;21.74;38.73;101235.97;5031759;28;48430;-80
2024/01/22 13:38:32;;;;;;;;;2.50;1.00;;;;;22.04;38.94;101224.31;5036967;28;45423;-83
2024/01/22 13:41:01;;;;;;;;;4.50;1.00;;;;;21.75;38.81;101201.34;5011654;28;45562;-81
2024/01/22 13:43:26;;;;;;;;;1.00;1.00;;;;;22.05;38.72;101231.50;5037108;28;45560;-79
2024/01/22 13:45:52;;;;;;;;;3.25;0.00;;;;;21.94;37.66;101219.75;5036609;28;46150;-80
2024/01/22 13:48:17;;;;;;;;;5.25;1.50;;;;;22.01;36.89;101231.91;5037190;28;45394;-81
2024/01/22 13:50:42;;;;;;;;;0.50;0.50;;;;;21.78;36.42;101236.56;5036746;28;45455;-81
2024/01/22 13:53:10;;;;;;;;;1.00;1.00;;;;;21.62;36.98;101234.25;5036449;28;48521;-79
2024/01/22 13:55:35;;;;;;;;;1.75;0.75;;;;;21.68;36.41;101257.47;5036289;28;46391;-77
2024/01/22 13:58:01;;;;;;;;;2.00;1.00;;;;;21.46;37.12;101252.91;5018612;28;45486;-80
2024/01/22 14:00:26;;;;;;;;;1.00;1.00;;;;;21.22;36.72;101193.09;5036888;28;45431;-82
2024/01/22 14:02:52;;;;;;;;;1.00;1.00;;;;;21.58;37.02;101238.25;5042901;28;45235;-80
2024/01/22 14:05:17;;;;;;;;;2.00;0.25;;;;;21.70;36.87;101217.25;5042154;28;45351;-80
2024/01/22 14:07:42;;;;;;;;;1.75;1.00;;;;;21.42;36.45;101218.72;5018551;28;45357;-79
2024/01/22 14:10:12;;;;;;;;;2.25;1.00;;;;;21.83;36.21;101248.84;5036760;28;45472;-79
2024/01/22 14:12:37;;;;;;;;;2.00;1.25;;;;;22.01;35.51;101256.50;5036311;28;45509;-78
2024/01/22 14:15:03;;;;;;;;;1.00;1.00;;;;;21.85;35.37;101256.91;5036032;28;46324;-79
2024/01/22 14:17:28;;;;;;;;;2.00;1.00;;;;;21.13;36.08;101227.41;5036071;28;45348;-83
2024/01/22 14:19:54;;;;;;;;;0.75;0.75;;;;;21.95;35.12;101282.41;5035944;28;49983;-81
2024/01/22 14:22:23;;;;;;;;;4.25;2.00;;;;;22.01;34.81;101264.69;5036063;28;45477;-78
2024/01/22 14:24:49;;;;;;;;;3.25;0.25;;;;;21.72;34.86;101272.56;5035766;28;46784;-79
2024/01/22 14:27:14;;;;;;;;;1.25;1.00;;;;;22.10;34.54;101277.53;5035337;28;51737;-77
2024/01/22 14:29:40;;;;;;;;;0.00;0.00;;;;;22.37;33.20;101258.75;5036351;28;45302;-81
2024/01/22 14:32:06;;;;;;;;;0.75;0.75;;;;;23.21;33.07;101293.22;5017101;28;46314;-80
2024/01/22 14:34:31;;;;;;;;;6.25;4.50;;;;;23.39;32.41;101283.31;5035815;28;45488;-79
2024/01/22 14:36:57;;;;;;;;;2.00;0.50;;;;;23.73;31.59;101266.56;5030026;28;45580;-79
2024/01/22 14:39:22;;;;;;;;;2.75;2.75;;;;;24.12;31.57;101303.91;5036054;28;45445;-81
2024/01/22 14:41:47;;;;;;;;;4.50;1.00;;;;;23.95;31.99;101296.41;5026823;28;45474;-80
2024/01/22 14:44:13;;;;;;;;;1.25;0.00;;;;;23.67;31.86;101298.09;5035730;28;46024;-80
2024/01/22 14:46:41;;;;;;;;;3.00;1.00;;;;;23.41;32.46;101318.75;5035520;28;48712;-80
2024/01/22 14:49:06;;;;;;;;;3.00;1.50;;;;;23.62;32.83;101313.22;5036004;28;45446;-80
2024/01/22 14:51:32;;;;;;;;;0.25;0.25;;;;;23.18;32.77;101298.06;5035738;28;45374;-79
2024/01/22 14:53:58;;;;;;;;;1.50;1.00;;;;;23.30;32.87;101322.47;5035547;28;46264;-80
2024/01/22 14:56:23;;;;;;;;;3.00;1.00;;;;;23.07;32.95;101292.69;5035431;28;45359;-79
2024/01/22 14:58:48;;;;;;;;;0.50;0.50;;;;;23.31;33.58;101326.03;5035528;28;45553;-79
2024/01/22 15:01:14;;;;;;;;;4.75;0.75;;;;;22.86;33.69;101311.88;5035727;28;45288;-80
2024/01/22 15:03:39;;;;;;;;;2.25;1.25;;;;;22.79;34.19;101319.78;5046067;28;45525;-80
2024/01/22 15:06:04;;;;;;;;;2.00;1.00;;;;;22.92;33.90;101320.41;5035888;28;46825;-82
2024/01/22 15:08:30;;;;;;;;;1.00;1.00;;;;;22.80;33.86;101334.28;5035810;28;45489;-80
2024/01/22 15:10:55;;;;;;;;;3.00;1.00;;;;;22.62;34.47;101329.41;5035296;28;45522;-79
2024/01/22 15:13:20;;;;;;;;;1.25;1.00;;;;;22.60;34.52;101341.47;5035023;28;45513;-79
2024/01/22 15:15:46;;;;;;;;;3.00;2.00;;;;;22.59;34.58;101302.34;5035132;28;45378;-80
2024/01/22 15:18:11;;;;;;;;;4.75;1.25;;;;;22.86;34.39;101372.03;5035586;28;45256;-79
2024/01/22 15:20:36;;;;;;;;;4.25;2.00;;;;;22.68;34.49;101358.06;5035766;28;45315;-78
2024/01/22 15:23:02;;;;;;;;;0.00;0.00;;;;;22.06;34.98;101345.19;5035177;28;48975;-79
2024/01/22 15:25:27;;;;;;;;;1.00;1.00;;;;;22.17;34.75;101379.81;5035354;28;45428;-79
2024/01/22 15:27:52;;;;;;;;;1.00;1.00;;;;;21.51;34.95;101389.84;5035299;28;45333;-79
2024/01/22 15:30:18;;;;;;;;;0.25;0.25;;;;;21.53;35.09;101371.47;5033550;28;45348;-80
2024/01/22 15:32:44;;;;;;;;;1.00;1.00;;;;;21.11;35.61;101373.03;5028068;28;47648;-79
2024/01/22 15:35:09;;;;;;;;;2.00;1.00;;;;;21.21;35.74;101379.53;5034624;28;45529;-81
2024/01/22 15:37:35;;;;;;;;;1.00;1.00;;;;;21.40;35.06;101420.72;5025881;28;45324;-80
2024/01/22 15:40:00;;;;;;;;;1.00;0.00;;;;;20.94;35.90;101417.13;5043796;28;45438;-80
2024/01/22 15:42:25;;;;;;;;;2.25;0.50;;;;;20.92;35.98;101414.56;5035705;28;51307;-80
2024/01/22 15:44:51;;;;;;;;;1.00;1.00;;;;;20.93;35.91;101404.47;5035449;28;45438;-80
2024/01/22 15:47:18;;;;;;;;;0.00;0.00;;;;;20.67;36.18;101371.13;5035497;28;45213;-79
2024/01/22 15:49:43;;;;;;;;;0.00;0.00;;;;;20.15;36.31;101337.00;5039031;28;45330;-80
2024/01/22 15:52:08;;;;;;;;;1.00;0.00;;;;;20.72;36.27;101418.81;5035848;28;45951;-80
2024/01/22 15:54:34;;;;;;;;;0.75;0.00;;;;;20.85;35.79;101396.91;5035956;28;46057;-79
2024/01/22 15:57:00;;;;;;;;;0.00;0.00;;;;;20.89;35.92;101409.31;5035003;28;45457;-80
2024/01/22 15:59:28;;;;;;;;;0.00;0.00;;;;;20.61;36.07;101398.81;5037000;28;45481;-82
2024/01/22 16:01:54;;;;;;;;;0.00;0.00;;;;;20.68;36.57;101446.41;5020281;28;46224;-80
2024/01/22 16:04:19;;;;;;;;;0.00;0.00;;;;;20.47;36.19;101427.16;5033542;28;45520;-81
2024/01/22 16:06:44;;;;;;;;;2.00;0.00;;;;;20.44;36.27;101432.81;5042430;28;45244;-81
2024/01/22 16:09:10;;;;;;;;;0.00;0.00;;;;;20.18;36.49;101526.44;5037523;28;45224;-81
2024/01/22 16:11:39;;;;;;;;;0.00;0.00;;;;;20.21;36.19;101508.06;5021969;28;46958;-81
2024/01/22 16:14:04;;;;;;;;;0.00;0.00;;;;;19.75;36.67;101461.56;5023767;28;45258;-82
2024/01/22 16:16:30;;;;;;;;;0.00;0.00;;;;;20.18;35.95;101523.72;5037733;28;45415;-81
2024/01/22 16:18:55;;;;;;;;;0.00;0.00;;;;;19.50;36.16;101492.38;5016827;28;45426;-82
2024/01/22 16:21:21;;;;;;;;;0.00;0.00;;;;;20.01;36.01;101523.13;5034368;28;45506;-79
2024/01/22 16:23:47;;;;;;;;;0.00;0.00;;;;;19.97;35.46;101557.00;5016246;28;45518;-79
2024/01/22 16:26:12;;;;;;;;;0.00;0.00;;;;;19.97;35.59;101547.97;5034482;28;45355;-80
2024/01/22 16:28:38;;;;;;;;;3.00;0.00;;;;;19.94;35.42;101559.94;5034386;28;45432;-80
2024/01/22 16:31:05;;;;;;;;;1.25;0.00;;;;;19.92;35.72;101591.81;5034265;28;45529;-79
2024/01/22 16:33:32;;;;;;;;;0.00;0.00;;;;;19.89;35.98;101577.59;5034652;28;45286;-80
2024/01/22 16:35:57;;;;;;;;;0.00;0.00;;;;;19.73;36.10;101556.03;5029900;28;45355;-80
2024/01/22 16:38:23;;;;;;;;;1.00;0.00;;;;;19.84;36.08;101596.94;5034907;28;45252;-79
2024/01/22 16:40:50;;;;;;;;;0.00;0.00;;;;;19.52;36.86;101625.53;5026712;28;46479;-80
2024/01/22 16:43:16;;;;;;;;;1.00;0.00;;;;;19.53;36.82;101636.31;5034031;28;45315;-81
2024/01/22 16:45:41;;;;;;;;;0.00;0.00;;;;;19.88;36.71;101635.72;5034907;28;45417;-79
2024/01/22 16:48:07;;;;;;;;;0.00;0.00;;;;;19.64;37.12;101614.69;5034708;28;45442;-79
2024/01/22 16:50:32;;;;;;;;;0.50;0.00;;;;;19.63;37.34;101664.63;5034387;28;46935;-79
2024/01/22 16:52:58;;;;;;;;;2.00;0.00;;;;;19.10;37.36;101570.41;5034503;28;45329;-81